Time;durP1;ratioP1;P1;durP2;ratioP2;P2;SDS_P1;SDS_P2;PMS_P1;PMS_P2;Temp;Humidity;BMP_temperature;BMP_pressure;BME280_temperature;BME280_humidity;BME280_pressure;Samples;Min_cycle;Max_cycle;Signal;HPM_P1;HPM_P2
2023/05/20 00:00:37;;;;;;;0.65;0.65;;;;;;;14.72;54.56;102621.19;5015374;28;20401;-80
2023/05/20 00:03:03;;;;;;;0.15;0.15;;;;;;;14.65;54.95;102616.81;5014110;28;20037;-81
2023/05/20 00:05:30;;;;;;;0.00;0.00;;;;;;;14.66;55.31;102619.44;5022972;28;20034;-80
2023/05/20 00:07:56;;;;;;;0.00;0.00;;;;;;;14.64;55.30;102621.22;5041119;28;20013;-80
2023/05/20 00:10:22;;;;;;;0.10;0.10;;;;;;;14.60;55.10;102614.13;5032882;28;20049;-81
2023/05/20 00:12:48;;;;;;;0.00;0.00;;;;;;;14.56;55.40;102618.59;5044511;28;20025;-81
2023/05/20 00:15:14;;;;;;;0.10;0.10;;;;;;;14.55;54.79;102624.88;5046589;28;20033;-81
2023/05/20 00:17:40;;;;;;;0.00;0.00;;;;;;;14.53;55.16;102634.66;5037471;28;20033;-81
2023/05/20 00:20:07;;;;;;;0.13;0.13;;;;;;;14.50;55.19;102626.66;5043423;28;20435;-81
2023/05/20 00:22:33;;;;;;;0.10;0.10;;;;;;;14.47;55.30;102618.69;5033679;28;20041;-81
2023/05/20 00:24:59;;;;;;;0.00;0.00;;;;;;;14.46;55.06;102616.03;5033486;28;20029;-81
2023/05/20 00:27:26;;;;;;;0.00;0.00;;;;;;;14.42;55.72;102631.19;5033192;28;20037;-81
2023/05/20 00:29:52;;;;;;;0.10;0.10;;;;;;;14.40;55.66;102632.97;5033304;28;20037;-80
2023/05/20 00:32:18;;;;;;;0.00;0.00;;;;;;;14.37;55.24;102627.66;5045070;28;20025;-80
2023/05/20 00:34:54;;;;;;;0.00;0.00;;;;;;;14.33;55.34;102618.81;5036828;28;20104;-80
2023/05/20 00:37:20;;;;;;;0.00;0.00;;;;;;;14.33;55.50;102617.91;5037255;28;20021;-80
2023/05/20 00:39:46;;;;;;;0.03;0.03;;;;;;;14.30;55.38;102623.28;5032832;28;20469;-81
2023/05/20 00:42:20;;;;;;;0.00;0.00;;;;;;;14.30;55.35;102613.47;5033560;28;20033;-81
2023/05/20 00:44:46;;;;;;;0.08;0.08;;;;;;;14.24;55.38;102622.41;5042035;28;20108;-81
2023/05/20 00:47:15;;;;;;;0.10;0.10;;;;;;;14.20;55.35;102625.09;5040616;28;20029;-81
2023/05/20 00:49:42;;;;;;;0.00;0.00;;;;;;;14.17;55.53;102623.34;5050798;28;20481;-81
2023/05/20 00:52:08;;;;;;;0.10;0.10;;;;;;;14.15;55.36;102614.47;5029352;28;20152;-81
2023/05/20 00:54:34;;;;;;;0.00;0.00;;;;;;;14.14;55.69;102617.16;5036928;28;20033;-81
2023/05/20 00:57:04;;;;;;;0.10;0.10;;;;;;;14.13;55.37;102618.94;5052787;28;20032;-81
2023/05/20 00:59:30;;;;;;;0.00;0.00;;;;;;;14.10;55.40;102608.28;5034475;28;20021;-81
2023/05/20 01:01:57;;;;;;;0.10;0.10;;;;;;;14.09;55.34;102606.50;5046646;28;20041;-81
2023/05/20 01:04:23;;;;;;;0.00;0.00;;;;;;;14.07;55.49;102603.00;5050385;28;20047;-81
2023/05/20 01:06:49;;;;;;;0.00;0.00;;;;;;;14.06;55.83;102604.75;5035854;28;20038;-81
2023/05/20 01:09:15;;;;;;;0.00;0.00;;;;;;;14.06;55.75;102606.53;5034153;28;20094;-81
2023/05/20 01:11:49;;;;;;;0.10;0.10;;;;;;;14.09;55.70;102609.19;5035918;28;20167;-81
2023/05/20 01:14:17;;;;;;;0.10;0.10;;;;;;;14.09;55.86;102606.50;5031093;28;20029;-81
2023/05/20 01:16:46;;;;;;;0.00;0.00;;;;;;;14.08;55.66;102594.06;5045342;28;20551;-80
2023/05/20 01:19:25;;;;;;;0.10;0.10;;;;;;;14.11;56.13;102603.84;5036658;28;20455;-81
2023/05/20 01:21:54;;;;;;;0.10;0.10;;;;;;;14.08;55.90;102597.66;5036610;28;20036;-81
2023/05/20 01:24:20;;;;;;;0.15;0.15;;;;;;;14.06;55.83;102590.56;5041339;28;20051;-81
2023/05/20 01:26:47;;;;;;;0.10;0.10;;;;;;;14.02;55.88;102588.81;5036174;28;20060;-79
2023/05/20 01:29:17;;;;;;;0.00;0.00;;;;;;;14.00;56.20;102591.47;5030699;28;20447;-80
2023/05/20 01:31:46;;;;;;;0.20;0.20;;;;;;;13.99;56.03;102588.81;5025386;28;20026;-79
2023/05/20 01:34:12;;;;;;;0.10;0.10;;;;;;;13.98;56.31;102584.38;5036896;28;20124;-80
2023/05/20 01:36:39;;;;;;;0.10;0.10;;;;;;;13.97;56.16;102590.59;5036930;28;20092;-79
2023/05/20 01:39:06;;;;;;;0.00;0.00;;;;;;;13.96;56.08;102581.72;5036485;28;20071;-80
2023/05/20 01:41:34;;;;;;;0.00;0.00;;;;;;;13.97;56.32;102579.94;5036342;28;20029;-80
2023/05/20 01:44:00;;;;;;;0.10;0.10;;;;;;;13.95;56.12;102571.09;5037359;28;20088;-79
2023/05/20 01:46:26;;;;;;;0.10;0.10;;;;;;;13.95;56.10;102573.75;5043097;28;20029;-79
2023/05/20 01:48:52;;;;;;;0.10;0.10;;;;;;;13.93;55.85;102573.75;5042955;28;20038;-80
2023/05/20 01:51:19;;;;;;;0.10;0.10;;;;;;;13.90;56.20;102574.66;5039788;28;20029;-80
2023/05/20 01:53:45;;;;;;;0.10;0.10;;;;;;;13.89;55.96;102577.31;5044656;28;20107;-79
2023/05/20 01:56:11;;;;;;;0.10;0.10;;;;;;;13.87;56.16;102577.34;5046532;28;20060;-80
2023/05/20 01:58:37;;;;;;;0.10;0.10;;;;;;;13.86;56.46;102572.03;5040980;28;20033;-82
2023/05/20 02:01:03;;;;;;;0.10;0.10;;;;;;;13.85;56.08;102571.13;5041978;28;20028;-80
2023/05/20 02:03:29;;;;;;;0.10;0.10;;;;;;;13.83;56.43;102569.38;5057404;28;20109;-80
2023/05/20 02:05:55;;;;;;;0.03;0.03;;;;;;;13.82;56.37;102576.50;5048440;28;20113;-81
2023/05/20 02:08:21;;;;;;;0.20;0.20;;;;;;;13.81;56.80;102573.84;5031359;28;20064;-79
2023/05/20 02:10:48;;;;;;;0.08;0.08;;;;;;;13.79;56.73;102571.16;5036339;28;20025;-79
2023/05/20 02:13:14;;;;;;;0.20;0.20;;;;;;;13.79;56.84;102570.28;5046920;28;20033;-79
2023/05/20 02:15:41;;;;;;;0.10;0.10;;;;;;;13.79;56.54;102564.97;5045840;28;20026;-79
2023/05/20 02:18:07;;;;;;;0.10;0.10;;;;;;;13.79;56.68;102564.97;5037399;28;20400;-79
2023/05/20 02:20:36;;;;;;;0.10;0.10;;;;;;;13.79;57.21;102571.16;5047626;28;20029;-79
2023/05/20 02:23:07;;;;;;;0.10;0.10;;;;;;;13.80;56.42;102572.94;5050378;28;20059;-79
2023/05/20 02:25:33;;;;;;;0.10;0.10;;;;;;;13.83;56.50;102574.69;5043755;28;20030;-79
2023/05/20 02:27:59;;;;;;;0.00;0.00;;;;;;;13.84;56.60;102573.81;5047435;28;20033;-79
2023/05/20 02:30:26;;;;;;;0.10;0.10;;;;;;;13.84;56.59;102577.34;5037125;28;20093;-79
2023/05/20 02:32:52;;;;;;;0.00;0.00;;;;;;;13.85;56.53;102571.13;5038295;28;20511;-80
2023/05/20 02:35:18;;;;;;;0.10;0.10;;;;;;;13.85;56.43;102568.47;5039346;28;20029;-80
2023/05/20 02:37:45;;;;;;;0.10;0.10;;;;;;;13.87;56.34;102573.81;5032572;28;20025;-79
2023/05/20 02:40:11;;;;;;;0.10;0.10;;;;;;;13.85;56.61;102565.81;5027105;28;20028;-78
2023/05/20 02:42:37;;;;;;;0.10;0.10;;;;;;;13.83;57.26;102572.94;5018331;28;20077;-79
2023/05/20 02:45:03;;;;;;;0.00;0.00;;;;;;;13.81;56.74;102561.38;5026404;28;20084;-80
2023/05/20 02:47:30;;;;;;;1.38;0.65;;;;;;;13.79;56.74;102563.16;5026987;28;20133;-80
2023/05/20 02:49:56;;;;;;;0.10;0.10;;;;;;;13.76;56.85;102563.19;5029366;28;20179;-80
2023/05/20 02:52:22;;;;;;;0.00;0.00;;;;;;;13.72;56.79;102558.75;5036260;28;20529;-80
2023/05/20 02:54:48;;;;;;;0.10;0.10;;;;;;;13.68;56.69;102552.59;5033002;28;20034;-80
2023/05/20 02:57:15;;;;;;;0.03;0.03;;;;;;;13.67;56.83;102555.25;5046044;28;20021;-80
2023/05/20 02:59:41;;;;;;;0.00;0.00;;;;;;;13.65;56.94;102559.72;5046648;28;20428;-79
2023/05/20 03:02:07;;;;;;;0.00;0.00;;;;;;;13.61;57.41;102557.94;5046729;28;20025;-81
2023/05/20 03:04:37;;;;;;;0.10;0.10;;;;;;;13.59;57.03;102563.28;5044251;28;20044;-80
2023/05/20 03:07:05;;;;;;;0.10;0.10;;;;;;;13.55;56.79;102551.75;5042040;28;20029;-80
2023/05/20 03:09:31;;;;;;;0.75;0.75;;;;;;;13.54;57.07;102557.97;5043287;28;20044;-80
2023/05/20 03:11:58;;;;;;;0.00;0.00;;;;;;;13.52;57.01;102562.44;5040553;28;20080;-80
2023/05/20 03:14:24;;;;;;;0.10;0.10;;;;;;;13.49;57.86;102562.44;5041784;28;20055;-80
2023/05/20 03:16:50;;;;;;;0.43;0.43;;;;;;;13.46;57.53;102562.47;5046337;28;20041;-79
2023/05/20 03:19:16;;;;;;;0.08;0.08;;;;;;;13.44;57.22;102558.91;5038681;28;20123;-81
2023/05/20 03:21:42;;;;;;;0.10;0.10;;;;;;;13.43;57.67;102567.78;5038780;28;20113;-81
2023/05/20 03:24:09;;;;;;;0.10;0.10;;;;;;;13.42;57.71;102566.00;5045299;28;20033;-81
2023/05/20 03:26:37;;;;;;;0.05;0.05;;;;;;;13.41;58.11;102564.28;5054261;28;20496;-81
2023/05/20 03:29:06;;;;;;;0.10;0.10;;;;;;;13.42;57.69;102566.00;5038734;28;20493;-81
2023/05/20 03:31:32;;;;;;;0.10;0.10;;;;;;;13.41;57.48;102567.81;5047418;28;20025;-80
2023/05/20 03:33:58;;;;;;;0.10;0.10;;;;;;;13.41;57.82;102569.59;5051546;28;20036;-80
2023/05/20 03:36:24;;;;;;;0.10;0.10;;;;;;;13.41;58.03;102574.91;5044208;28;20120;-81
2023/05/20 03:38:50;;;;;;;0.10;0.10;;;;;;;13.40;57.52;102567.81;5041485;28;20029;-80
2023/05/20 03:41:16;;;;;;;0.03;0.03;;;;;;;13.38;57.69;102565.16;5035642;28;20408;-80
2023/05/20 03:43:42;;;;;;;0.00;0.00;;;;;;;13.39;57.83;102568.72;5036967;28;20587;-80
2023/05/20 03:46:08;;;;;;;0.10;0.10;;;;;;;13.41;57.98;102569.59;5045873;28;20488;-80
2023/05/20 03:48:34;;;;;;;0.10;0.10;;;;;;;13.41;57.53;102564.28;5045066;28;20058;-81
2023/05/20 03:51:01;;;;;;;0.00;0.00;;;;;;;13.41;57.54;102569.59;5037087;28;20409;-80
2023/05/20 03:53:27;;;;;;;0.00;0.00;;;;;;;13.40;57.88;102563.38;5044426;28;20028;-81
2023/05/20 03:55:53;;;;;;;0.17;0.17;;;;;;;13.41;57.84;102564.28;5041255;28;20030;-81
2023/05/20 03:58:19;;;;;;;0.10;0.10;;;;;;;13.40;57.89;102557.16;5026903;28;20034;-80
2023/05/20 04:00:46;;;;;;;0.00;0.00;;;;;;;13.40;57.78;102563.38;5016890;28;20044;-81
2023/05/20 04:03:12;;;;;;;0.00;0.00;;;;;;;13.40;57.97;102562.50;5017728;28;20026;-81
2023/05/20 04:05:38;;;;;;;0.00;0.00;;;;;;;13.39;57.94;102558.06;5023612;28;20524;-81
2023/05/20 04:08:04;;;;;;;0.08;0.08;;;;;;;13.37;57.99;102547.41;5029145;28;20044;-81
2023/05/20 04:10:31;;;;;;;0.00;0.00;;;;;;;13.35;57.95;102549.16;5042960;28;20029;-80
2023/05/20 04:12:58;;;;;;;0.00;0.00;;;;;;;13.35;57.91;102553.63;5036743;28;20112;-81
2023/05/20 04:15:24;;;;;;;0.00;0.00;;;;;;;13.36;58.00;102555.38;5044953;28;20013;-80
2023/05/20 04:17:51;;;;;;;0.10;0.10;;;;;;;13.38;57.93;102553.63;5045104;28;20506;-81
2023/05/20 04:20:17;;;;;;;0.10;0.10;;;;;;;13.39;57.55;102553.59;5039689;28;20036;-81
2023/05/20 04:22:44;;;;;;;0.00;0.00;;;;;;;13.43;57.75;102563.38;5036624;28;20036;-80
2023/05/20 04:25:11;;;;;;;0.10;0.10;;;;;;;13.46;57.98;102557.16;5037003;28;20029;-80
2023/05/20 04:27:38;;;;;;;0.85;0.30;;;;;;;13.47;57.97;102564.25;5038254;28;20091;-81
2023/05/20 04:30:05;;;;;;;0.10;0.10;;;;;;;13.50;58.13;102564.22;5022056;28;20022;-81
2023/05/20 04:32:33;;;;;;;0.10;0.10;;;;;;;13.51;57.63;102563.31;5017737;28;20033;-81
2023/05/20 04:35:01;;;;;;;0.10;0.10;;;;;;;13.54;58.46;102557.97;5017606;28;20543;-80
2023/05/20 04:37:30;;;;;;;0.10;0.10;;;;;;;13.59;58.14;102558.84;5025141;28;20034;-81
2023/05/20 04:39:56;;;;;;;0.10;0.10;;;;;;;13.64;57.88;102565.94;5016885;28;20029;-81
2023/05/20 04:42:22;;;;;;;0.08;0.08;;;;;;;13.66;57.58;102564.16;5017309;28;20095;-81
2023/05/20 04:44:48;;;;;;;0.10;0.10;;;;;;;13.71;57.98;102573.00;5022152;28;20057;-81
2023/05/20 04:47:15;;;;;;;0.10;0.10;;;;;;;13.74;57.96;102570.31;5023603;28;20076;-81
2023/05/20 04:49:41;;;;;;;0.20;0.15;;;;;;;13.80;58.21;102572.94;5016564;28;20501;-80
2023/05/20 04:52:07;;;;;;;0.08;0.08;;;;;;;13.88;57.82;102571.13;5027803;28;20061;-81
2023/05/20 04:54:33;;;;;;;0.00;0.00;;;;;;;13.95;57.82;102571.09;5032105;28;20033;-80
2023/05/20 04:57:00;;;;;;;0.10;0.10;;;;;;;14.01;58.07;102569.25;5026301;28;20037;-80
2023/05/20 04:59:26;;;;;;;1.13;1.13;;;;;;;14.05;57.97;102565.66;5030852;28;20033;-81
2023/05/20 05:01:52;;;;;;;0.00;0.00;;;;;;;14.09;58.09;102561.19;5032778;28;20456;-81
2023/05/20 05:04:18;;;;;;;0.10;0.10;;;;;;;14.15;57.96;102555.81;5025046;28;20022;-81
2023/05/20 05:06:46;;;;;;;0.10;0.10;;;;;;;14.19;57.59;102554.03;5018259;28;20026;-80
2023/05/20 05:09:12;;;;;;;0.00;0.00;;;;;;;14.22;57.64;102554.88;5024457;28;20490;-81
2023/05/20 05:11:38;;;;;;;0.10;0.10;;;;;;;14.26;57.62;102554.88;5017190;28;20553;-80
2023/05/20 05:14:04;;;;;;;0.10;0.10;;;;;;;14.28;57.84;102551.31;5034998;28;20022;-80
2023/05/20 05:16:30;;;;;;;0.03;0.03;;;;;;;14.33;57.71;102545.91;5050927;28;20041;-80
2023/05/20 05:18:56;;;;;;;0.00;0.00;;;;;;;14.37;58.19;102553.00;5030585;28;20112;-81
2023/05/20 05:21:22;;;;;;;0.10;0.10;;;;;;;14.43;58.12;102558.28;5016953;28;20037;-81
2023/05/20 05:23:48;;;;;;;0.10;0.10;;;;;;;14.47;58.24;102551.16;5017637;28;20038;-81
2023/05/20 05:26:15;;;;;;;0.10;0.10;;;;;;;14.51;58.06;102545.75;5025868;28;20032;-81
2023/05/20 05:28:42;;;;;;;0.10;0.10;;;;;;;14.57;58.03;102540.34;5038595;28;20038;-81
2023/05/20 05:31:08;;;;;;;0.03;0.03;;;;;;;14.66;57.63;102533.22;5027943;28;20025;-81
2023/05/20 05:33:35;;;;;;;0.10;0.10;;;;;;;14.74;57.64;102531.31;5035814;28;20038;-81
2023/05/20 05:36:01;;;;;;;0.10;0.10;;;;;;;14.82;57.81;102540.16;5031265;28;20112;-81
2023/05/20 05:38:27;;;;;;;0.10;0.10;;;;;;;14.88;57.44;102539.22;5044657;28;20404;-81
2023/05/20 05:40:53;;;;;;;0.20;0.20;;;;;;;14.91;57.29;102538.28;5035898;28;20041;-81
2023/05/20 05:43:19;;;;;;;0.10;0.10;;;;;;;14.92;57.29;102540.06;5035549;28;20095;-80
2023/05/20 05:45:45;;;;;;;0.05;0.05;;;;;;;14.93;57.53;102542.72;5045453;28;20033;-80
2023/05/20 05:48:11;;;;;;;0.08;0.08;;;;;;;14.95;57.43;102540.00;5055116;28;20087;-81
2023/05/20 05:50:37;;;;;;;0.00;0.00;;;;;;;14.99;57.42;102539.06;5051372;28;20045;-81
2023/05/20 05:53:03;;;;;;;0.20;0.20;;;;;;;15.04;57.15;102539.91;5047528;28;20037;-81
2023/05/20 05:55:30;;;;;;;0.00;0.00;;;;;;;15.03;56.98;102533.69;5039381;28;20036;-81
2023/05/20 05:57:56;;;;;;;0.20;0.20;;;;;;;15.03;57.31;102532.81;5040423;28;20389;-81
2023/05/20 06:00:22;;;;;;;0.10;0.10;;;;;;;15.05;57.43;102541.66;5038646;28;20484;-81
2023/05/20 06:02:49;;;;;;;0.10;0.10;;;;;;;15.07;57.10;102539.88;5040279;28;20056;-81
2023/05/20 06:05:15;;;;;;;0.10;0.10;;;;;;;15.08;57.23;102541.66;5040083;28;20116;-81
2023/05/20 06:07:41;;;;;;;0.00;0.00;;;;;;;15.11;57.14;102546.94;5040002;28;20099;-81
2023/05/20 06:10:08;;;;;;;0.10;0.10;;;;;;;15.12;57.24;102538.03;5035741;28;20029;-81
2023/05/20 06:12:34;;;;;;;0.10;0.10;;;;;;;15.15;57.36;102543.34;5039925;28;20049;-81
2023/05/20 06:15:00;;;;;;;0.10;0.10;;;;;;;15.18;56.92;102540.63;5039333;28;20104;-81
2023/05/20 06:17:26;;;;;;;0.08;0.08;;;;;;;15.19;56.85;102538.84;5038664;28;20040;-81
2023/05/20 06:19:52;;;;;;;0.08;0.08;;;;;;;15.19;57.27;102545.06;5040214;28;20080;-81
2023/05/20 06:22:18;;;;;;;0.10;0.10;;;;;;;15.20;57.08;102541.50;5049648;28;20025;-80
2023/05/20 06:24:44;;;;;;;0.10;0.10;;;;;;;15.23;57.27;102540.59;5041770;28;20033;-81
2023/05/20 06:27:10;;;;;;;0.28;0.25;;;;;;;15.28;57.32;102537.84;5040619;28;20037;-81
2023/05/20 06:29:36;;;;;;;0.08;0.08;;;;;;;15.31;57.28;102540.47;5046158;28;20084;-80
2023/05/20 06:32:03;;;;;;;0.03;0.03;;;;;;;15.36;57.40;102546.63;5047484;28;20041;-80
2023/05/20 06:34:29;;;;;;;0.00;0.00;;;;;;;15.41;57.46;102533.22;5025042;28;20029;-81
2023/05/20 06:36:55;;;;;;;0.10;0.10;;;;;;;15.44;57.39;102528.75;5019892;28;20397;-81
2023/05/20 06:39:21;;;;;;;0.00;0.00;;;;;;;15.46;57.05;102524.25;5019700;28;20057;-80
2023/05/20 06:41:47;;;;;;;0.17;0.17;;;;;;;15.50;56.84;102527.75;5027542;28;20064;-80
2023/05/20 06:44:13;;;;;;;0.15;0.15;;;;;;;15.54;57.08;102529.50;5022386;28;20507;-81
2023/05/20 06:46:39;;;;;;;0.10;0.10;;;;;;;15.60;57.00;102528.50;5037664;28;20073;-81
2023/05/20 06:49:05;;;;;;;0.00;0.00;;;;;;;15.65;57.24;102518.63;5038801;28;20488;-80
2023/05/20 06:51:31;;;;;;;0.30;0.30;;;;;;;15.72;57.17;102516.78;5045570;28;20496;-80
2023/05/20 06:53:57;;;;;;;0.20;0.20;;;;;;;15.79;57.23;102505.09;5039838;28;20109;-80
2023/05/20 06:56:23;;;;;;;0.05;0.05;;;;;;;15.85;56.82;102513.06;5039170;28;20044;-80
2023/05/20 06:58:49;;;;;;;0.10;0.10;;;;;;;15.90;56.95;102505.84;5039705;28;20493;-79
2023/05/20 07:01:15;;;;;;;0.00;0.00;;;;;;;15.96;56.71;102515.53;5038314;28;20385;-80
2023/05/20 07:03:43;;;;;;;0.00;0.00;;;;;;;15.99;56.79;102510.16;5036345;28;20083;-80
2023/05/20 07:06:09;;;;;;;0.40;0.40;;;;;;;16.03;56.47;102503.84;5030467;28;20444;-80
2023/05/20 07:08:35;;;;;;;0.10;0.10;;;;;;;16.07;57.13;102510.91;5038781;28;20040;-80
2023/05/20 07:11:01;;;;;;;0.20;0.20;;;;;;;16.12;56.80;102509.03;5038400;28;20042;-80
2023/05/20 07:13:28;;;;;;;0.00;0.00;;;;;;;16.17;56.86;102504.50;5038508;28;20038;-80
2023/05/20 07:15:54;;;;;;;0.00;0.00;;;;;;;16.24;56.72;102504.41;5037166;28;20037;-80
2023/05/20 07:18:20;;;;;;;0.22;0.22;;;;;;;16.31;56.53;102496.25;5038318;28;20083;-80
2023/05/20 07:20:46;;;;;;;0.08;0.08;;;;;;;16.38;56.70;102497.00;5039926;28;20408;-81
2023/05/20 07:23:12;;;;;;;0.10;0.10;;;;;;;16.44;56.71;102502.25;5045965;28;20037;-80
2023/05/20 07:25:38;;;;;;;0.03;0.03;;;;;;;16.54;56.52;102502.97;5038470;28;20397;-81
2023/05/20 07:28:04;;;;;;;0.10;0.10;;;;;;;16.63;56.60;102500.09;5037169;28;20396;-80
2023/05/20 07:30:30;;;;;;;0.08;0.08;;;;;;;16.71;56.51;102505.34;5044271;28;20396;-81
2023/05/20 07:32:56;;;;;;;0.30;0.30;;;;;;;16.82;56.17;102495.28;5046887;28;20040;-81
2023/05/20 07:35:23;;;;;;;0.30;0.30;;;;;;;16.91;56.27;102496.00;5045943;28;20029;-81
2023/05/20 07:37:49;;;;;;;0.10;0.10;;;;;;;16.98;55.75;102492.31;5047485;28;20033;-81
2023/05/20 07:40:15;;;;;;;0.00;0.00;;;;;;;17.08;55.82;102493.03;5048875;28;20033;-80
2023/05/20 07:42:41;;;;;;;0.10;0.10;;;;;;;17.16;55.90;102491.06;5042072;28;20040;-80
2023/05/20 07:45:08;;;;;;;0.10;0.10;;;;;;;17.25;55.87;102480.16;5037676;28;20207;-81
2023/05/20 07:47:34;;;;;;;0.10;0.10;;;;;;;17.34;55.66;102483.56;5038728;28;20030;-81
2023/05/20 07:50:00;;;;;;;0.10;0.10;;;;;;;17.44;55.72;102479.75;5036155;28;20033;-80
2023/05/20 07:52:26;;;;;;;0.10;0.10;;;;;;;17.56;55.32;102475.91;5046119;28;20037;-81
2023/05/20 07:54:52;;;;;;;0.00;0.00;;;;;;;17.66;55.38;102474.78;5038169;28;20399;-80
2023/05/20 07:57:18;;;;;;;0.10;0.10;;;;;;;17.76;54.98;102470.94;5034294;28;20061;-81
2023/05/20 07:59:44;;;;;;;0.20;0.20;;;;;;;17.85;54.91;102468.97;5043797;28;20048;-81
2023/05/20 08:02:10;;;;;;;0.03;0.03;;;;;;;17.93;54.81;102459.81;5032543;28;20443;-81
2023/05/20 08:04:36;;;;;;;0.10;0.10;;;;;;;18.05;54.68;102461.31;5033415;28;20068;-81
2023/05/20 08:07:02;;;;;;;0.10;0.10;;;;;;;18.15;54.34;102467.31;5036374;28;20033;-80
2023/05/20 08:09:30;;;;;;;0.10;0.10;;;;;;;18.23;54.00;102467.13;5036590;28;20311;-81
2023/05/20 08:11:56;;;;;;;0.10;0.10;;;;;;;18.31;53.84;102473.19;5045790;28;20125;-80
2023/05/20 08:14:22;;;;;;;0.32;0.32;;;;;;;18.37;53.15;102469.47;5043881;28;20075;-80
2023/05/20 08:16:48;;;;;;;0.10;0.10;;;;;;;18.43;53.34;102464.78;5037822;28;20419;-81
2023/05/20 08:19:14;;;;;;;0.10;0.10;;;;;;;18.50;53.39;102460.13;5046094;28;20049;-81
2023/05/20 08:21:41;;;;;;;0.10;0.10;;;;;;;18.54;53.22;102474.34;5041212;28;20044;-80
2023/05/20 08:24:07;;;;;;;0.10;0.10;;;;;;;18.62;52.90;102461.59;5036676;28;20025;-81
2023/05/20 08:26:33;;;;;;;0.00;0.00;;;;;;;18.68;52.77;102471.28;5030555;28;20093;-80
2023/05/20 08:28:59;;;;;;;2.05;1.27;;;;;;;18.74;52.75;102477.38;5033565;28;20052;-81
2023/05/20 08:31:25;;;;;;;0.10;0.10;;;;;;;18.79;52.57;102462.91;5047022;28;20029;-79
2023/05/20 08:33:51;;;;;;;0.10;0.10;;;;;;;18.86;52.40;102459.13;5053054;28;20052;-80
2023/05/20 08:36:18;;;;;;;0.22;0.22;;;;;;;18.94;52.63;102465.22;5055635;28;20037;-80
2023/05/20 08:38:44;;;;;;;0.82;0.82;;;;;;;19.01;52.17;102453.34;5058405;28;20033;-82
2023/05/20 08:41:10;;;;;;;0.10;0.10;;;;;;;19.13;52.11;102454.78;5042610;28;20056;-81
2023/05/20 08:43:37;;;;;;;0.52;0.52;;;;;;;19.22;51.84;102445.56;5033753;28;20037;-81
2023/05/20 08:46:05;;;;;;;0.22;0.22;;;;;;;19.31;51.76;102439.03;5035758;28;20733;-82
2023/05/20 08:48:32;;;;;;;0.00;0.00;;;;;;;19.37;50.79;102445.06;5037603;28;20025;-82
2023/05/20 08:51:00;;;;;;;1.25;0.40;;;;;;;19.47;50.69;102425.97;5036859;28;20034;-82
2023/05/20 08:53:26;;;;;;;0.10;0.10;;;;;;;19.57;50.50;102424.75;5033836;28;20034;-82
2023/05/20 08:55:56;;;;;;;0.05;0.05;;;;;;;19.68;49.91;102422.56;5035063;28;20097;-81
2023/05/20 08:58:23;;;;;;;0.10;0.10;;;;;;;19.80;49.67;102436.53;5038553;28;20026;-82
2023/05/20 09:00:51;;;;;;;0.10;0.10;;;;;;;19.87;49.09;102424.69;5037482;28;20029;-82
2023/05/20 09:03:19;;;;;;;0.10;0.10;;;;;;;19.99;49.15;102418.88;5038050;28;20025;-82
2023/05/20 09:05:46;;;;;;;0.45;0.45;;;;;;;20.09;48.79;102415.84;5033063;28;20041;-81
2023/05/20 09:08:12;;;;;;;0.52;0.52;;;;;;;20.19;48.50;102411.94;5029242;28;20096;-82
2023/05/20 09:10:40;;;;;;;0.10;0.10;;;;;;;20.30;48.44;102408.81;5036939;28;20038;-82
2023/05/20 09:13:07;;;;;;;0.00;0.00;;;;;;;20.43;48.33;102414.66;5033447;28;20029;-82
2023/05/20 09:15:34;;;;;;;0.20;0.20;;;;;;;20.56;47.76;102415.09;5041511;28;20029;-81
2023/05/20 09:18:02;;;;;;;0.00;0.00;;;;;;;20.67;46.86;102421.84;5039616;28;20035;-82
2023/05/20 09:20:30;;;;;;;0.10;0.10;;;;;;;20.77;46.93;102413.44;5041976;28;20033;-82
2023/05/20 09:23:11;;;;;;;0.10;0.10;;;;;;;20.94;46.56;102408.28;5048934;28;20028;-82
2023/05/20 09:25:37;;;;;;;0.10;0.10;;;;;;;20.96;46.42;102409.09;5049014;28;20022;-81
2023/05/20 09:28:06;;;;;;;0.10;0.10;;;;;;;21.09;45.72;102403.22;5040613;28;20040;-81
2023/05/20 09:30:33;;;;;;;0.10;0.10;;;;;;;21.15;45.63;102390.38;5048181;28;20037;-82
2023/05/20 09:33:00;;;;;;;0.17;0.17;;;;;;;21.22;45.21;102395.53;5027914;28;20060;-82
2023/05/20 09:35:27;;;;;;;0.10;0.10;;;;;;;21.25;45.29;102382.78;5041716;28;20040;-81
2023/05/20 09:37:55;;;;;;;0.10;0.10;;;;;;;21.23;44.51;102379.28;5033286;28;20034;-83
2023/05/20 09:40:25;;;;;;;0.10;0.10;;;;;;;21.23;44.30;102384.66;5020610;28;20108;-81
2023/05/20 09:43:05;;;;;;;0.10;0.10;;;;;;;21.30;44.32;102374.53;5027594;28;20455;-81
2023/05/20 09:45:31;;;;;;;0.10;0.10;;;;;;;21.40;44.73;102380.44;5031978;28;20030;-81
2023/05/20 09:47:58;;;;;;;0.10;0.10;;;;;;;21.48;43.84;102383.66;5022163;28;20062;-81
2023/05/20 09:50:26;;;;;;;0.17;0.17;;;;;;;21.63;43.84;102382.19;5025891;28;20053;-81
2023/05/20 09:52:53;;;;;;;0.03;0.03;;;;;;;21.76;43.93;102378.03;5032200;28;20049;-81
2023/05/20 09:55:23;;;;;;;0.13;0.13;;;;;;;21.85;42.88;102360.56;5026438;28;20108;-82
2023/05/20 09:57:49;;;;;;;0.10;0.10;;;;;;;22.01;43.23;102365.25;5021657;28;20030;-81
2023/05/20 10:00:16;;;;;;;0.10;0.10;;;;;;;22.11;42.41;102366.63;5021965;28;20477;-81
2023/05/20 10:02:45;;;;;;;0.17;0.17;;;;;;;22.25;42.64;102369.56;5028672;28;20111;-80
2023/05/20 10:05:19;;;;;;;0.20;0.20;;;;;;;22.26;41.82;102357.84;5017937;28;20069;-81
2023/05/20 10:08:25;;;;;;;0.10;0.10;;;;;;;22.23;41.10;102355.28;5021586;28;20042;-80
2023/05/20 10:14:10;;;;;;;0.00;0.00;;;;;;;22.16;42.05;102356.50;5087104;28;20402;-80
2023/05/20 10:17:01;;;;;;;0.10;0.10;;;;;;;22.27;41.75;102348.78;5078823;28;20032;-82
2023/05/20 10:19:32;;;;;;;0.32;0.32;;;;;;;22.25;41.63;102352.50;5081815;28;20025;-79
2023/05/20 10:22:02;;;;;;;0.10;0.10;;;;;;;22.22;41.64;102353.53;5067538;28;20021;-79
2023/05/20 10:27:11;;;;;;;0.10;0.10;;;;;;;22.22;40.62;102342.72;5065463;28;20419;-79
2023/05/20 10:29:49;;;;;;;0.10;0.10;;;;;;;22.41;41.24;102337.38;5067571;28;20112;-82
2023/05/20 10:32:32;;;;;;;0.10;0.10;;;;;;;22.59;40.10;102334.75;5068507;28;20056;-80
2023/05/20 10:35:00;;;;;;;0.25;0.25;;;;;;;22.65;39.39;102323.66;5066201;28;20367;-81
2023/05/20 10:37:28;;;;;;;0.00;0.00;;;;;;;22.74;39.78;102333.16;5068181;28;20024;-80
2023/05/20 10:40:11;;;;;;;0.10;0.10;;;;;;;22.85;39.50;102328.09;5056077;28;20025;-80
2023/05/20 10:42:41;;;;;;;0.10;0.10;;;;;;;22.88;40.13;102319.88;5052111;28;20075;-81
2023/05/20 10:45:08;;;;;;;0.10;0.10;;;;;;;22.97;39.89;102315.84;5051283;28;20021;-79
2023/05/20 10:47:35;;;;;;;0.08;0.08;;;;;;;23.08;39.31;102320.72;5046873;28;20093;-82
2023/05/20 10:50:03;;;;;;;0.00;0.00;;;;;;;23.19;39.19;102317.50;5048847;28;20060;-79
2023/05/20 10:52:35;;;;;;;0.20;0.20;;;;;;;23.24;38.81;102321.75;5066535;28;20105;-79
2023/05/20 10:55:02;;;;;;;0.20;0.20;;;;;;;23.32;38.62;102312.38;5045164;28;20085;-81
2023/05/20 10:57:28;;;;;;;0.08;0.08;;;;;;;23.36;38.00;102314.81;5050680;28;20052;-81
2023/05/20 10:59:55;;;;;;;0.10;0.10;;;;;;;23.48;38.82;102312.44;5043607;28;20057;-82
2023/05/20 11:02:27;;;;;;;0.10;0.10;;;;;;;23.50;38.32;102300.59;5055291;28;20030;-79
2023/05/20 11:04:57;;;;;;;0.10;0.10;;;;;;;23.44;38.49;102303.63;5065267;28;20089;-80
2023/05/20 11:07:53;;;;;;;0.05;0.05;;;;;;;23.49;38.42;102306.97;5052326;28;20060;-80
2023/05/20 11:10:21;;;;;;;0.40;0.40;;;;;;;23.55;37.96;102298.53;5055524;28;20037;-81
2023/05/20 11:12:49;;;;;;;0.10;0.10;;;;;;;23.66;37.91;102305.22;5055662;28;20052;-80
2023/05/20 11:15:15;;;;;;;0.10;0.10;;;;;;;23.65;37.54;102298.03;5058783;28;20026;-83
2023/05/20 11:17:53;;;;;;;0.10;0.10;;;;;;;23.61;37.96;102293.75;5046510;28;20545;-79
2023/05/20 11:20:20;;;;;;;0.10;0.10;;;;;;;23.58;38.22;102298.34;5056380;28;20518;-80
2023/05/20 11:22:50;;;;;;;0.10;0.10;;;;;;;23.75;38.07;102293.88;5060690;28;20021;-81
2023/05/20 11:25:22;;;;;;;0.10;0.10;;;;;;;23.91;36.04;102285.81;5060201;28;20032;-82
2023/05/20 11:27:52;;;;;;;;;;;;;;;24.16;36.52;102288.13;5062652;28;20052;-81
2023/05/20 11:30:19;;;;;;;0.10;0.10;;;;;;;24.17;37.06;102280.88;5055248;28;19920;-80